.
WxDataArchive / Data Records for 2007-04-15
2007-04-14 April 2007 2007-04-16

Data Records for Sunday, 15 April 2007

Time	Temp	Chill	HIndex	Humid	Dewpt	 Wind 	HiWind	WindDir	Rain 	Barom 
-----	----	-----	------	-----	-----	------	------	-------	-----	----- 
00:00	32.2	32.2	32.2	91	29.9	0	0	---	0.00	29.816 
00:05	32.2	32.2	32.2	91	29.9	0	0	---	0.00	29.817 
00:10	32.4	32.4	32.4	91	30.1	0	0	---	0.00	29.817 
00:15	32.4	32.4	32.4	91	30.1	0	0	---	0.00	29.815 
00:20	32.4	32.4	32.4	91	30.1	0	0	---	0.00	29.811 
00:25	32.4	32.4	32.4	91	30.1	0	0	---	0.00	29.812 
00:30	32.4	32.4	32.4	91	30.1	0	0	---	0.00	29.811 
00:35	32.5	32.5	32.5	91	30.2	0	0	---	0.00	29.807 
00:40	32.5	32.5	32.5	91	30.2	0	0	---	0.00	29.806 
00:45	32.5	32.5	32.5	91	30.2	0	0	---	0.00	29.803 
00:50	32.5	32.5	32.5	91	30.2	0	0	---	0.00	29.800 
00:55	32.5	32.5	32.5	91	30.2	0	0	---	0.00	29.799 
01:00	32.5	32.5	32.5	91	30.2	0	0	---	0.00	29.799 
01:05	32.4	32.4	32.4	91	30.1	0	0	---	0.00	29.802 
01:10	32.2	32.2	32.2	91	29.9	0	0	---	0.00	29.799 
01:15	32.2	32.2	32.2	90	29.6	0	0	---	0.00	29.796 
01:20	32.2	32.2	32.2	90	29.6	0	0	---	0.00	29.795 
01:25	32.2	32.2	32.2	90	29.6	0	0	---	0.00	29.794 
01:30	32.2	32.2	32.2	89	29.3	0	0	---	0.00	29.794 
01:35	32.2	32.2	32.2	89	29.3	0	0	---	0.00	29.791 
01:40	32.1	32.1	32.1	89	29.2	0	0	---	0.00	29.791 
01:45	31.9	31.9	31.9	89	29.0	0	0	---	0.00	29.787 
01:50	31.8	31.8	31.8	88	28.7	0	0	---	0.00	29.786 
01:55	31.8	31.8	31.8	88	28.7	0	0	---	0.00	29.786 
02:00	31.6	31.6	31.6	88	28.5	0	0	---	0.00	29.786 
02:05	31.5	31.5	31.5	88	28.4	0	0	---	0.00	29.786 
02:10	31.3	31.3	31.3	88	28.2	0	0	---	0.00	29.784 
02:15	31.2	31.2	31.2	88	28.1	0	0	---	0.00	29.785 
02:20	31.0	31.0	31.0	88	27.9	0	0	---	0.00	29.781 
02:25	30.9	30.9	30.9	88	27.8	0	0	---	0.00	29.779 
02:30	30.9	30.9	30.9	88	27.8	0	0	---	0.00	29.778 
02:35	30.7	30.7	30.7	88	27.6	0	0	---	0.00	29.777 
02:40	30.6	30.6	30.6	88	27.5	0	0	---	0.00	29.777 
02:45	30.4	30.4	30.4	88	27.3	0	0	---	0.00	29.780 
02:50	30.3	30.3	30.3	88	27.2	0	0	---	0.00	29.778 
02:55	30.3	30.3	30.3	88	27.2	0	0	---	0.00	29.776 
03:00	30.1	30.1	30.1	88	27.0	0	0	---	0.00	29.775 
03:05	30.1	30.1	30.1	88	27.0	0	0	---	0.00	29.776 
03:10	30.0	30.0	30.0	88	26.9	0	0	---	0.00	29.777 
03:15	30.0	30.0	30.0	88	26.9	0	0	---	0.00	29.776 
03:20	30.0	30.0	30.0	88	26.9	0	0	---	0.00	29.776 
03:25	29.8	29.8	29.8	88	26.7	0	0	---	0.00	29.776 
03:30	29.8	29.8	29.8	87	26.4	0	0	---	0.00	29.776 
03:35	29.8	29.8	29.8	86	26.1	0	0	---	0.00	29.775 
03:40	29.8	29.8	29.8	85	25.9	0	0	---	0.00	29.776 
03:45	29.7	29.7	29.7	85	25.8	0	0	---	0.00	29.776 
03:50	29.7	29.7	29.7	84	25.5	0	0	---	0.00	29.776 
03:55	29.8	29.8	29.8	83	25.3	0	0	---	0.00	29.776 
04:00	29.8	29.8	29.8	82	25.0	0	0	---	0.00	29.775 
04:05	29.7	29.7	29.7	82	24.9	0	0	---	0.00	29.775 
04:10	29.7	29.7	29.7	81	24.6	0	0	---	0.00	29.777 
04:15	29.5	29.5	29.5	81	24.4	0	0	---	0.00	29.777 
04:20	29.5	29.5	29.5	80	24.1	0	0	---	0.00	29.777 
04:25	29.5	29.5	29.5	80	24.1	0	0	---	0.00	29.778 
04:30	29.4	29.4	29.4	79	23.7	0	0	---	0.00	29.778 
04:35	29.3	29.3	29.3	80	23.9	0	0	---	0.00	29.779 
04:40	29.1	29.1	29.1	79	23.4	0	0	---	0.00	29.780 
04:45	29.0	29.0	29.0	79	23.3	0	0	---	0.00	29.780 
04:50	29.0	29.0	29.0	79	23.3	0	0	---	0.00	29.780 
04:55	29.0	29.0	29.0	79	23.3	0	0	---	0.00	29.780 
05:00	29.0	29.0	29.0	79	23.3	0	0	---	0.00	29.781 
05:05	28.8	28.8	28.8	79	23.1	0	0	---	0.00	29.782 
05:10	29.0	29.0	29.0	79	23.3	0	0	---	0.00	29.783 
05:15	29.0	29.0	29.0	79	23.3	0	0	---	0.00	29.785 
05:20	29.0	29.0	29.0	79	23.3	0	0	---	0.00	29.786 
05:25	29.0	29.0	29.0	79	23.3	0	0	---	0.00	29.789 
05:30	28.8	28.8	28.8	79	23.1	0	0	---	0.00	29.792 
05:35	28.8	28.8	28.8	80	23.4	0	0	---	0.00	29.794 
05:40	28.7	28.7	28.7	80	23.3	0	0	---	0.00	29.795 
05:45	28.7	28.7	28.7	80	23.3	0	0	---	0.00	29.796 
05:50	28.5	28.5	28.5	81	23.4	0	0	---	0.00	29.797 
05:55	28.5	28.5	28.5	81	23.4	0	0	---	0.00	29.798 
06:00	28.5	28.5	28.5	81	23.4	0	0	---	0.00	29.805 
06:05	28.5	28.5	28.5	81	23.4	0	0	---	0.00	29.810 
06:10	28.5	28.5	28.5	81	23.4	0	0	---	0.00	29.813 
06:15	28.5	28.5	28.5	81	23.4	0	0	---	0.00	29.813 
06:20	28.5	28.5	28.5	81	23.4	0	0	---	0.00	29.814 
06:25	28.5	28.5	28.5	81	23.4	0	0	---	0.00	29.813 
06:30	28.7	28.7	28.7	81	23.6	0	0	---	0.00	29.813 
06:35	28.8	28.8	28.8	81	23.7	0	0	---	0.00	29.815 
06:40	29.0	29.0	29.0	81	23.9	0	0	---	0.00	29.816 
06:45	29.3	29.3	29.3	81	24.2	0	0	---	0.00	29.816 
06:50	29.5	29.5	29.5	80	24.1	0	0	---	0.00	29.816 
06:55	29.7	29.7	29.7	80	24.3	0	0	---	0.00	29.819 
07:00	29.8	29.8	29.8	79	24.1	0	0	---	0.00	29.818 
07:05	30.1	30.1	30.1	79	24.4	0	0	---	0.00	29.821 
07:10	30.3	30.3	30.3	79	24.6	0	0	---	0.00	29.822 
07:15	30.6	30.6	30.6	79	24.9	0	0	---	0.00	29.820 
07:20	30.7	30.7	30.7	79	25.0	0	0	---	0.00	29.822 
07:25	31.0	31.0	31.0	78	25.0	0	0	---	0.00	29.823 
07:30	31.3	31.3	31.3	78	25.3	0	0	---	0.00	29.824 
07:35	31.5	31.5	31.5	77	25.1	0	0	---	0.00	29.823 
07:40	31.8	31.8	31.8	77	25.4	0	2	338	0.00	29.823 
07:45	31.9	31.9	31.9	77	25.5	1	4	338	0.00	29.821 
07:50	32.4	32.4	32.4	77	26.0	1	4	0	0.00	29.821 
07:55	32.7	32.7	32.7	77	26.3	1	5	338	0.00	29.822 
08:00	32.8	32.8	32.8	76	26.1	2	5	22	0.01	29.821 
08:05	32.9	32.9	32.9	76	26.2	2	7	0	0.00	29.823 
08:10	33.1	33.1	33.1	76	26.4	2	10	0	0.00	29.829 
08:15	33.5	33.5	33.5	76	26.8	1	4	338	0.01	29.830 
08:20	33.8	33.8	33.8	75	26.7	2	6	0	0.01	29.831 
08:25	34.1	34.1	34.1	74	26.7	2	5	22	0.00	29.834 
08:30	34.4	34.4	34.4	75	27.3	1	5	292	0.00	29.834 
08:35	34.9	34.9	34.9	74	27.5	1	4	45	0.01	29.832 
08:40	35.3	35.3	35.3	74	27.9	1	3	0	0.01	29.829 
08:45	35.3	35.3	35.3	72	27.2	2	6	45	0.00	29.826 
08:50	35.3	35.3	35.3	71	26.9	2	10	0	0.01	29.829 
08:55	35.5	35.5	35.5	73	27.7	2	8	338	0.00	29.828 
09:00	35.9	35.9	35.9	73	28.1	1	5	45	0.01	29.831 
09:05	36.0	36.0	36.0	71	27.5	2	4	0	0.00	29.831 
09:10	36.2	36.2	36.2	70	27.4	2	5	0	0.01	29.829 
09:15	36.5	36.5	36.5	70	27.7	2	5	22	0.00	29.830 
09:20	36.6	36.6	36.6	70	27.8	2	5	45	0.01	29.826 
09:25	36.9	36.9	36.9	70	28.0	2	5	22	0.00	29.830 
09:30	37.2	37.2	37.2	68	27.6	1	4	338	0.00	29.829 
09:35	37.2	37.2	37.2	69	28.0	2	5	0	0.00	29.828 
09:40	37.5	37.5	37.5	67	27.6	2	6	315	0.00	29.830 
09:45	37.5	37.5	37.5	68	27.9	2	6	338	0.00	29.829 
09:50	37.6	37.6	37.6	67	27.7	2	7	22	0.01	29.830 
09:55	37.9	37.9	37.9	68	28.3	2	4	0	0.00	29.830 
10:00	38.3	38.3	38.3	68	28.7	2	9	0	0.01	29.830 
10:05	38.6	38.6	38.6	66	28.2	2	6	0	0.00	29.830 
10:10	38.8	38.8	38.8	64	27.7	2	9	338	0.00	29.831 
10:15	39.1	39.1	39.1	65	28.3	2	9	0	0.00	29.832 
10:20	39.5	39.5	39.5	64	28.3	2	6	0	0.00	29.831 
10:25	39.9	39.9	39.9	63	28.3	2	6	338	0.01	29.830 
10:30	40.5	40.5	40.5	64	29.3	2	6	292	0.00	29.830 
10:35	40.5	40.5	40.5	61	28.1	3	8	22	0.00	29.830 
10:40	40.8	40.8	40.8	62	28.8	2	9	338	0.00	29.831 
10:45	41.3	41.3	41.3	63	29.7	2	7	338	0.00	29.830 
10:50	41.9	41.9	41.9	62	29.8	2	6	338	0.00	29.830 
10:55	42.2	42.2	42.2	60	29.3	2	9	315	0.00	29.831 
11:00	42.5	42.5	42.5	60	29.6	2	5	0	0.00	29.830 
11:05	42.6	42.6	42.6	62	30.5	2	7	22	0.00	29.832 
11:10	43.3	43.3	43.3	63	31.6	2	6	0	0.00	29.834 
11:15	43.9	43.9	43.9	61	31.3	2	7	0	0.00	29.836 
11:20	44.2	44.2	44.2	58	30.4	2	7	0	0.00	29.831 
11:25	44.5	44.5	44.5	57	30.2	2	7	0	0.00	29.832 
11:30	44.6	44.6	44.6	53	28.5	2	6	292	0.00	29.831 
11:35	44.9	44.9	44.9	54	29.3	2	7	338	0.00	29.830 
11:40	45.5	45.5	45.5	56	30.7	2	7	292	0.00	29.829 
11:45	46.0	46.0	46.0	56	31.2	2	8	0	0.00	29.826 
11:50	46.4	46.4	46.4	53	30.2	3	6	270	0.00	29.826 
11:55	46.8	46.8	46.8	54	31.0	2	5	338	0.00	29.826 
12:00	47.1	47.1	47.1	52	30.4	2	6	338	0.00	29.825 
12:05	47.3	47.3	47.3	53	31.0	3	6	338	0.00	29.820 
12:10	47.7	47.7	47.7	46	27.9	3	7	22	0.00	29.818 
12:15	48.2	48.2	48.2	49	29.9	2	4	0	0.00	29.812 
12:20	48.9	48.9	48.9	47	29.6	3	7	0	0.00	29.810 
12:25	49.1	49.1	49.1	44	28.1	3	12	338	0.01	29.807 
12:30	48.9	47.6	48.9	43	27.4	4	11	0	0.00	29.806 
12:35	49.6	49.6	49.6	43	28.0	3	11	338	0.00	29.803 
12:40	50.5	50.5	50.5	46	30.5	2	5	0	0.00	29.804 
12:45	51.0	51.0	51.0	42	28.7	3	12	45	0.00	29.804 
12:50	50.7	50.7	50.7	41	27.9	3	9	45	0.00	29.802 
12:55	50.7	50.7	50.7	42	28.5	3	9	315	0.00	29.804 
13:00	51.0	51.0	51.0	40	27.5	3	9	315	0.00	29.803 
13:05	51.3	51.3	51.3	40	27.8	4	18	22	0.00	29.806 
13:10	51.6	51.6	51.6	41	28.7	3	11	22	0.00	29.804 
13:15	51.3	51.3	51.3	39	27.2	4	11	0	0.00	29.804 
13:20	51.3	51.3	51.3	40	27.8	3	9	292	0.00	29.799 
13:25	52.0	52.0	52.0	41	29.0	3	7	0	0.00	29.798 
13:30	52.0	52.0	52.0	41	29.0	3	11	0	0.00	29.796 
13:35	51.7	51.7	51.7	37	26.3	3	9	338	0.00	29.793 
13:40	51.9	51.9	51.9	38	27.1	2	8	0	0.00	29.794 
13:45	52.2	52.2	52.2	37	26.7	4	11	22	0.00	29.793 
13:50	52.0	52.0	52.0	37	26.5	3	7	0	0.00	29.794 
13:55	52.3	52.3	52.3	36	26.1	3	9	338	0.00	29.793 
14:00	52.6	52.6	52.6	40	29.0	3	6	0	0.00	29.792 
14:05	53.3	53.3	53.3	37	27.7	3	11	0	0.00	29.795 
14:10	52.9	52.9	52.9	33	24.6	4	12	0	0.00	29.794 
14:15	52.9	52.9	52.9	33	24.6	4	10	0	0.00	29.795 
14:20	52.8	52.8	52.8	35	25.9	3	8	22	0.00	29.794 
14:25	52.8	52.8	52.8	36	26.6	4	12	68	0.00	29.794 
14:30	52.5	52.5	52.5	32	23.5	4	14	22	0.00	29.796 
14:35	52.8	52.8	52.8	35	25.9	3	13	22	0.00	29.795 
14:40	52.5	52.5	52.5	33	24.2	3	9	315	0.00	29.794 
14:45	52.3	52.3	52.3	34	24.8	3	6	315	0.00	29.794 
14:50	53.5	53.5	53.5	41	30.4	2	7	0	0.00	29.793 
14:55	54.1	54.1	54.1	33	25.6	3	8	338	0.00	29.791 
15:00	53.8	53.8	53.8	31	23.9	3	6	338	0.00	29.792 
15:05	53.1	53.1	53.1	32	24.0	2	5	0	0.00	29.793 
15:10	52.3	52.3	52.3	33	24.1	2	5	22	0.00	29.793 
15:15	52.2	52.2	52.2	32	23.2	3	9	338	0.00	29.795 
15:20	52.0	52.0	52.0	35	25.2	3	7	0	0.00	29.795 
15:25	52.5	52.5	52.5	33	24.2	2	10	338	0.00	29.794 
15:30	52.6	52.6	52.6	34	25.0	2	5	338	0.00	29.793 
15:35	52.5	52.5	52.5	35	25.6	2	5	22	0.00	29.793 
15:40	52.2	52.2	52.2	34	24.7	2	11	0	0.00	29.794 
15:45	52.0	52.0	52.0	33	23.8	2	6	292	0.00	29.794 
15:50	52.0	52.0	52.0	32	23.1	3	6	315	0.00	29.794 
15:55	52.2	52.2	52.2	35	25.4	2	4	0	0.00	29.794 
16:00	52.5	52.5	52.5	33	24.2	3	7	338	0.00	29.796 
16:05	52.8	52.8	52.8	34	25.2	3	7	0	0.00	29.794 
16:10	52.8	52.8	52.8	32	23.8	3	9	315	0.00	29.795 
16:15	52.6	52.6	52.6	32	23.6	2	6	338	0.00	29.796 
16:20	52.3	52.3	52.3	32	23.3	2	9	338	0.00	29.798 
16:25	52.2	52.2	52.2	32	23.2	2	7	338	0.00	29.799 
16:30	52.5	52.5	52.5	33	24.2	4	13	292	0.00	29.795 
16:35	52.6	52.6	52.6	32	23.6	3	10	22	0.00	29.795 
16:40	52.6	52.6	52.6	34	25.0	2	7	22	0.00	29.797 
16:45	52.8	52.8	52.8	32	23.8	3	8	338	0.00	29.798 
16:50	52.8	52.8	52.8	32	23.8	3	9	0	0.00	29.798 
16:55	52.3	52.3	52.3	32	23.3	4	10	338	0.00	29.799 
17:00	52.6	52.6	52.6	33	24.3	3	9	338	0.00	29.797 
17:05	53.2	53.2	53.2	34	25.6	2	7	338	0.00	29.797 
17:10	53.3	53.3	53.3	33	24.9	3	8	0	0.00	29.798 
17:15	53.2	53.2	53.2	32	24.1	3	7	338	0.00	29.796 
17:20	53.1	53.1	53.1	31	23.3	3	11	22	0.00	29.798 
17:25	53.1	53.1	53.1	31	23.3	2	5	338	0.00	29.798 
17:30	53.1	53.1	53.1	31	23.3	2	10	338	0.00	29.796 
17:35	53.1	53.1	53.1	32	24.0	3	9	0	0.00	29.794 
17:40	53.5	53.5	53.5	35	26.5	1	4	338	0.00	29.795 
17:45	53.6	53.6	53.6	32	24.5	2	5	0	0.00	29.793 
17:50	53.6	53.6	53.6	31	23.7	2	7	338	0.00	29.795 
17:55	53.1	53.1	53.1	33	24.8	2	4	292	0.00	29.795 
18:00	52.5	52.5	52.5	34	25.0	2	5	338	0.00	29.800 
18:05	52.5	52.5	52.5	34	25.0	2	9	315	0.00	29.801 
18:10	52.6	52.6	52.6	33	24.3	3	7	292	0.00	29.801 
18:15	52.6	52.6	52.6	34	25.0	2	11	315	0.00	29.802 
18:20	52.5	52.5	52.5	31	22.8	3	12	292	0.00	29.806 
18:25	52.0	52.0	52.0	31	22.3	3	12	338	0.00	29.807 
18:30	51.7	51.7	51.7	32	22.8	3	7	315	0.00	29.807 
18:35	51.3	51.3	51.3	32	22.5	3	7	292	0.00	29.811 
18:40	51.0	51.0	51.0	33	22.9	4	8	292	0.00	29.812 
18:45	50.8	50.8	50.8	33	22.7	3	9	292	0.00	29.811 
18:50	50.5	50.5	50.5	33	22.5	3	8	338	0.00	29.812 
18:55	50.2	50.2	50.2	34	22.9	2	6	292	0.00	29.812 
19:00	49.9	49.9	49.9	34	22.7	2	5	270	0.00	29.812 
19:05	49.8	49.8	49.8	35	23.3	1	3	292	0.00	29.811 
19:10	49.4	49.4	49.4	34	22.2	2	7	338	0.00	29.810 
19:15	49.2	49.2	49.2	35	22.7	2	6	292	0.00	29.811 
19:20	48.8	48.8	48.8	35	22.4	2	5	292	0.00	29.812 
19:25	48.5	48.5	48.5	36	22.8	2	6	270	0.00	29.815 
19:30	48.2	48.2	48.2	37	23.2	1	3	270	0.00	29.819 
19:35	47.9	47.9	47.9	37	22.9	2	6	270	0.00	29.823 
19:40	47.7	47.7	47.7	37	22.7	2	6	292	0.00	29.824 
19:45	47.6	47.6	47.6	37	22.6	1	6	338	0.00	29.825 
19:50	47.3	47.3	47.3	38	23.0	1	3	315	0.00	29.826 
19:55	47.0	47.0	47.0	38	22.7	1	4	338	0.00	29.828 
20:00	46.7	46.7	46.7	39	23.1	1	5	270	0.00	29.830 
20:05	46.5	46.5	46.5	40	23.5	1	3	270	0.00	29.835 
20:10	46.4	46.4	46.4	39	22.8	1	5	315	0.00	29.839 
20:15	46.2	46.2	46.2	39	22.6	1	4	315	0.00	29.839 
20:20	46.0	46.0	46.0	39	22.4	2	7	315	0.00	29.841 
20:25	46.0	46.0	46.0	39	22.4	2	6	338	0.00	29.843 
20:30	45.7	45.7	45.7	39	22.2	2	7	292	0.00	29.844 
20:35	45.5	45.5	45.5	40	22.6	2	5	270	0.00	29.846 
20:40	45.1	45.1	45.1	41	22.8	1	5	292	0.00	29.850 
20:45	44.8	44.8	44.8	42	23.1	2	6	292	0.00	29.849 
20:50	44.5	44.5	44.5	42	22.9	1	6	292	0.00	29.852 
20:55	44.2	44.2	44.2	42	22.6	1	5	315	0.00	29.855 
21:00	44.1	44.1	44.1	43	23.0	1	6	292	0.00	29.857 
21:05	43.9	43.9	43.9	43	22.9	1	5	292	0.00	29.855 
21:10	43.6	43.6	43.6	44	23.1	1	3	292	0.00	29.856 
21:15	43.3	43.3	43.3	44	22.9	1	5	292	0.00	29.858 
21:20	43.1	43.1	43.1	43	22.1	1	5	315	0.00	29.860 
21:25	43.1	43.1	43.1	43	22.1	2	10	292	0.00	29.860 
21:30	42.9	42.9	42.9	43	22.0	2	9	315	0.00	29.860 
21:35	42.6	42.6	42.6	43	21.7	2	6	270	0.00	29.860 
21:40	42.3	42.3	42.3	44	22.0	2	5	270	0.00	29.861 
21:45	42.2	42.2	42.2	45	22.4	1	4	270	0.00	29.860 
21:50	41.9	41.9	41.9	45	22.1	1	4	270	0.00	29.860 
21:55	41.9	41.9	41.9	46	22.6	1	5	292	0.00	29.861 
22:00	41.6	41.6	41.6	46	22.4	1	3	270	0.00	29.861 
22:05	41.3	41.3	41.3	47	22.6	1	3	270	0.00	29.860 
22:10	41.2	41.2	41.2	47	22.5	1	4	315	0.00	29.861 
22:15	41.2	41.2	41.2	48	23.0	1	5	315	0.00	29.860 
22:20	41.1	41.1	41.1	48	22.9	1	4	292	0.00	29.859 
22:25	40.9	40.9	40.9	49	23.2	1	4	0	0.00	29.858 
22:30	40.8	40.8	40.8	49	23.1	1	7	315	0.00	29.859 
22:35	40.6	40.6	40.6	50	23.4	1	4	292	0.00	29.859 
22:40	40.5	40.5	40.5	50	23.3	1	5	270	0.00	29.858 
22:45	40.3	40.3	40.3	51	23.6	1	2	292	0.00	29.860 
22:50	40.2	40.2	40.2	52	24.0	1	3	292	0.00	29.861 
22:55	39.9	39.9	39.9	52	23.7	1	3	270	0.00	29.859 
23:00	39.8	39.8	39.8	53	24.1	1	3	270	0.00	29.859 
23:05	39.6	39.6	39.6	53	23.9	1	3	292	0.00	29.857 
23:10	39.6	39.6	39.6	54	24.3	1	3	292	0.00	29.857 
23:15	39.5	39.5	39.5	54	24.2	1	2	292	0.00	29.854 
23:20	39.3	39.3	39.3	54	24.1	1	3	292	0.00	29.853 
23:25	39.3	39.3	39.3	55	24.5	1	4	292	0.00	29.855 
23:30	39.2	39.2	39.2	55	24.4	0	3	315	0.00	29.855 
23:35	39.1	39.1	39.1	56	24.7	0	3	315	0.00	29.857 
23:40	39.1	39.1	39.1	56	24.7	1	4	292	0.00	29.857 
23:45	38.9	38.9	38.9	56	24.6	0	2	292	0.00	29.858 
23:50	38.8	38.8	38.8	57	24.9	0	1	292	0.00	29.857 
23:55	38.8	38.8	38.8	57	24.9	0	2	315	0.00	29.858 

CoCoRaHS
IN-AL-39
A2 Web Hosting
Creative Commons License
GoDaddy
Look for:

loaded 2017-10-17 22:33:15 • last modified 2010-11-18 10:43:29
Privacy PolicyDisclaimer
• wx.awcolley.com is powered by PmWiki v.2002016 •
• all content (unless otherwise noted) © 2017 A W Colley